sensor_id;sensor_type;location;lat;lon;timestamp;temperature;humidity
21834;DHT22;11079;51.092;3.458;2023-02-25T00:11:17;6.00;99.90
21834;DHT22;11079;51.092;3.458;2023-02-25T00:17:45;6.10;99.90
21834;DHT22;11079;51.092;3.458;2023-02-25T00:29:38;5.50;99.90
21834;DHT22;11079;51.092;3.458;2023-02-25T00:32:27;5.30;99.90
21834;DHT22;11079;51.092;3.458;2023-02-25T00:35:01;5.20;99.90
21834;DHT22;11079;51.092;3.458;2023-02-25T00:41:13;5.20;99.90
21834;DHT22;11079;51.092;3.458;2023-02-25T00:44:16;5.20;99.90
21834;DHT22;11079;51.092;3.458;2023-02-25T01:00:15;5.90;99.90
21834;DHT22;11079;51.092;3.458;2023-02-25T01:03:19;6.00;99.90
21834;DHT22;11079;51.092;3.458;2023-02-25T01:06:00;6.00;99.90
21834;DHT22;11079;51.092;3.458;2023-02-25T01:15:25;5.70;99.90
21834;DHT22;11079;51.092;3.458;2023-02-25T01:18:24;5.70;99.90
21834;DHT22;11079;51.092;3.458;2023-02-25T01:21:00;5.90;99.90
21834;DHT22;11079;51.092;3.458;2023-02-25T01:23:59;6.00;99.90
21834;DHT22;11079;51.092;3.458;2023-02-25T01:36:46;6.20;99.90
21834;DHT22;11079;51.092;3.458;2023-02-25T01:39:17;6.00;99.90
21834;DHT22;11079;51.092;3.458;2023-02-25T01:41:48;5.50;99.90
21834;DHT22;11079;51.092;3.458;2023-02-25T01:44:29;5.40;99.90
21834;DHT22;11079;51.092;3.458;2023-02-25T01:57:27;5.30;99.90
21834;DHT22;11079;51.092;3.458;2023-02-25T02:00:11;5.20;99.90
21834;DHT22;11079;51.092;3.458;2023-02-25T02:03:01;5.30;99.90
21834;DHT22;11079;51.092;3.458;2023-02-25T02:06:15;5.50;99.90
21834;DHT22;11079;51.092;3.458;2023-02-25T02:08:50;5.60;99.90
21834;DHT22;11079;51.092;3.458;2023-02-25T02:15:11;5.70;99.90
21834;DHT22;11079;51.092;3.458;2023-02-25T02:35:02;5.20;99.90
21834;DHT22;11079;51.092;3.458;2023-02-25T02:50:37;5.40;99.90
21834;DHT22;11079;51.092;3.458;2023-02-25T02:53:41;5.40;99.90
21834;DHT22;11079;51.092;3.458;2023-02-25T02:56:23;5.10;99.90
21834;DHT22;11079;51.092;3.458;2023-02-25T02:59:24;4.90;99.90
21834;DHT22;11079;51.092;3.458;2023-02-25T03:02:07;5.00;99.90
21834;DHT22;11079;51.092;3.458;2023-02-25T03:04:43;5.10;99.90
21834;DHT22;11079;51.092;3.458;2023-02-25T03:07:21;5.30;99.90
21834;DHT22;11079;51.092;3.458;2023-02-25T03:10:03;5.50;99.90
21834;DHT22;11079;51.092;3.458;2023-02-25T03:12:33;5.40;99.90
21834;DHT22;11079;51.092;3.458;2023-02-25T03:15:06;5.40;99.90
21834;DHT22;11079;51.092;3.458;2023-02-25T03:17:53;5.30;99.90
21834;DHT22;11079;51.092;3.458;2023-02-25T03:20:27;5.30;99.90
21834;DHT22;11079;51.092;3.458;2023-02-25T03:23:07;5.30;99.90
21834;DHT22;11079;51.092;3.458;2023-02-25T03:25:43;5.30;99.90
21834;DHT22;11079;51.092;3.458;2023-02-25T03:28:37;5.30;99.90
21834;DHT22;11079;51.092;3.458;2023-02-25T03:31:27;5.40;99.90
21834;DHT22;11079;51.092;3.458;2023-02-25T03:34:19;5.50;99.90
21834;DHT22;11079;51.092;3.458;2023-02-25T03:37:02;5.50;99.90
21834;DHT22;11079;51.092;3.458;2023-02-25T03:40:13;5.60;99.90
21834;DHT22;11079;51.092;3.458;2023-02-25T03:42:53;5.40;99.90
21834;DHT22;11079;51.092;3.458;2023-02-25T03:45:27;5.60;99.90
21834;DHT22;11079;51.092;3.458;2023-02-25T03:47:57;5.60;99.90
21834;DHT22;11079;51.092;3.458;2023-02-25T03:50:30;5.70;99.90
21834;DHT22;11079;51.092;3.458;2023-02-25T03:52:57;5.60;99.90
21834;DHT22;11079;51.092;3.458;2023-02-25T03:55:33;5.60;99.90
21834;DHT22;11079;51.092;3.458;2023-02-25T03:58:00;5.60;99.90
21834;DHT22;11079;51.092;3.458;2023-02-25T04:00:33;5.50;99.90
21834;DHT22;11079;51.092;3.458;2023-02-25T04:03:03;5.60;99.90
21834;DHT22;11079;51.092;3.458;2023-02-25T04:05:29;5.90;99.90
21834;DHT22;11079;51.092;3.458;2023-02-25T04:08:00;5.90;99.90
21834;DHT22;11079;51.092;3.458;2023-02-25T04:10:26;6.10;99.90
21834;DHT22;11079;51.092;3.458;2023-02-25T04:12:55;6.00;99.90
21834;DHT22;11079;51.092;3.458;2023-02-25T04:15:25;6.10;99.90
21834;DHT22;11079;51.092;3.458;2023-02-25T04:17:53;5.90;99.90
21834;DHT22;11079;51.092;3.458;2023-02-25T04:20:57;6.10;99.90
21834;DHT22;11079;51.092;3.458;2023-02-25T04:23:25;6.00;99.90
21834;DHT22;11079;51.092;3.458;2023-02-25T04:25:51;6.30;99.90
21834;DHT22;11079;51.092;3.458;2023-02-25T04:28:17;6.20;99.90
21834;DHT22;11079;51.092;3.458;2023-02-25T04:30:43;6.20;99.90
21834;DHT22;11079;51.092;3.458;2023-02-25T04:33:13;6.00;99.90
21834;DHT22;11079;51.092;3.458;2023-02-25T04:35:43;5.90;99.90
21834;DHT22;11079;51.092;3.458;2023-02-25T04:38:11;5.70;99.90
21834;DHT22;11079;51.092;3.458;2023-02-25T04:40:37;5.70;99.90
21834;DHT22;11079;51.092;3.458;2023-02-25T04:43:06;5.70;99.90
21834;DHT22;11079;51.092;3.458;2023-02-25T04:45:34;5.60;99.90
21834;DHT22;11079;51.092;3.458;2023-02-25T04:48:00;5.80;99.90
21834;DHT22;11079;51.092;3.458;2023-02-25T04:50:34;6.00;99.90
21834;DHT22;11079;51.092;3.458;2023-02-25T04:53:15;6.20;99.90
21834;DHT22;11079;51.092;3.458;2023-02-25T04:55:45;6.20;99.90
21834;DHT22;11079;51.092;3.458;2023-02-25T04:58:11;6.40;99.90
21834;DHT22;11079;51.092;3.458;2023-02-25T05:00:48;6.50;99.90
21834;DHT22;11079;51.092;3.458;2023-02-25T05:03:16;6.30;99.90
21834;DHT22;11079;51.092;3.458;2023-02-25T05:05:43;6.30;99.90
21834;DHT22;11079;51.092;3.458;2023-02-25T05:08:14;6.40;99.90
21834;DHT22;11079;51.092;3.458;2023-02-25T05:10:45;6.40;99.90
21834;DHT22;11079;51.092;3.458;2023-02-25T05:13:19;6.50;99.90
21834;DHT22;11079;51.092;3.458;2023-02-25T05:15:46;6.60;99.90
21834;DHT22;11079;51.092;3.458;2023-02-25T05:18:17;6.60;99.90
21834;DHT22;11079;51.092;3.458;2023-02-25T05:20:45;6.60;99.90
21834;DHT22;11079;51.092;3.458;2023-02-25T05:23:21;6.40;99.90
21834;DHT22;11079;51.092;3.458;2023-02-25T05:25:48;6.60;99.90
21834;DHT22;11079;51.092;3.458;2023-02-25T05:28:19;6.80;99.90
21834;DHT22;11079;51.092;3.458;2023-02-25T05:30:54;6.70;99.90
21834;DHT22;11079;51.092;3.458;2023-02-25T05:33:30;6.70;99.90
21834;DHT22;11079;51.092;3.458;2023-02-25T05:36:13;6.30;99.90
21834;DHT22;11079;51.092;3.458;2023-02-25T05:38:47;6.40;99.90
21834;DHT22;11079;51.092;3.458;2023-02-25T05:47:55;6.40;99.90
21834;DHT22;11079;51.092;3.458;2023-02-25T05:50:38;6.30;99.90
21834;DHT22;11079;51.092;3.458;2023-02-25T05:53:13;6.20;99.90
21834;DHT22;11079;51.092;3.458;2023-02-25T05:55:56;6.20;99.90
21834;DHT22;11079;51.092;3.458;2023-02-25T05:58:40;6.30;99.90
21834;DHT22;11079;51.092;3.458;2023-02-25T06:01:18;6.10;99.90
21834;DHT22;11079;51.092;3.458;2023-02-25T06:03:54;6.20;99.90
21834;DHT22;11079;51.092;3.458;2023-02-25T06:06:29;6.30;99.90
21834;DHT22;11079;51.092;3.458;2023-02-25T06:08:59;6.50;99.90
21834;DHT22;11079;51.092;3.458;2023-02-25T06:11:27;6.40;99.90
21834;DHT22;11079;51.092;3.458;2023-02-25T06:13:55;6.40;99.90
21834;DHT22;11079;51.092;3.458;2023-02-25T06:16:25;6.40;99.90
21834;DHT22;11079;51.092;3.458;2023-02-25T06:18:58;6.20;99.90
21834;DHT22;11079;51.092;3.458;2023-02-25T06:21:27;6.20;99.90
21834;DHT22;11079;51.092;3.458;2023-02-25T06:23:59;6.10;99.90
21834;DHT22;11079;51.092;3.458;2023-02-25T06:29:26;6.30;99.90
21834;DHT22;11079;51.092;3.458;2023-02-25T06:31:55;6.40;99.90
21834;DHT22;11079;51.092;3.458;2023-02-25T06:34:21;6.20;99.90
21834;DHT22;11079;51.092;3.458;2023-02-25T06:37:00;6.30;99.90
21834;DHT22;11079;51.092;3.458;2023-02-25T06:39:32;6.20;99.90
21834;DHT22;11079;51.092;3.458;2023-02-25T06:41:58;6.30;99.90
21834;DHT22;11079;51.092;3.458;2023-02-25T06:44:33;6.30;99.90
21834;DHT22;11079;51.092;3.458;2023-02-25T06:47:09;5.90;99.90
21834;DHT22;11079;51.092;3.458;2023-02-25T06:49:35;6.00;99.90
21834;DHT22;11079;51.092;3.458;2023-02-25T06:52:03;6.20;99.90
21834;DHT22;11079;51.092;3.458;2023-02-25T06:54:52;6.10;99.90
21834;DHT22;11079;51.092;3.458;2023-02-25T06:57:17;6.30;99.90
21834;DHT22;11079;51.092;3.458;2023-02-25T06:59:46;6.40;99.90
21834;DHT22;11079;51.092;3.458;2023-02-25T07:02:12;6.40;99.90
21834;DHT22;11079;51.092;3.458;2023-02-25T07:04:38;6.60;99.90
21834;DHT22;11079;51.092;3.458;2023-02-25T07:07:09;6.60;99.90
21834;DHT22;11079;51.092;3.458;2023-02-25T07:09:42;6.60;99.90
21834;DHT22;11079;51.092;3.458;2023-02-25T07:12:08;6.60;99.90
21834;DHT22;11079;51.092;3.458;2023-02-25T07:14:40;6.60;99.90
21834;DHT22;11079;51.092;3.458;2023-02-25T09:59:41;20.40;99.90
21834;DHT22;11079;51.092;3.458;2023-02-25T10:08:25;19.00;99.70
21834;DHT22;11079;51.092;3.458;2023-02-25T10:11:08;17.60;99.90
21834;DHT22;11079;51.092;3.458;2023-02-25T10:43:43;16.90;99.90
21834;DHT22;11079;51.092;3.458;2023-02-25T10:58:44;11.20;99.90
21834;DHT22;11079;51.092;3.458;2023-02-25T21:43:04;3.20;99.90
21834;DHT22;11079;51.092;3.458;2023-02-25T21:45:55;3.20;99.90
21834;DHT22;11079;51.092;3.458;2023-02-25T21:48:38;3.00;99.90
21834;DHT22;11079;51.092;3.458;2023-02-25T21:51:11;3.10;99.90
21834;DHT22;11079;51.092;3.458;2023-02-25T21:54:06;3.10;99.90
21834;DHT22;11079;51.092;3.458;2023-02-25T21:56:49;3.10;99.90
21834;DHT22;11079;51.092;3.458;2023-02-25T22:03:09;3.00;99.90
21834;DHT22;11079;51.092;3.458;2023-02-25T22:05:49;2.90;99.90
21834;DHT22;11079;51.092;3.458;2023-02-25T22:08:31;2.80;99.90
21834;DHT22;11079;51.092;3.458;2023-02-25T22:11:24;2.90;99.90
21834;DHT22;11079;51.092;3.458;2023-02-25T22:13:52;2.80;99.90
21834;DHT22;11079;51.092;3.458;2023-02-25T22:16:21;2.90;99.90
21834;DHT22;11079;51.092;3.458;2023-02-25T22:18:50;2.80;99.90
21834;DHT22;11079;51.092;3.458;2023-02-25T22:21:26;2.70;99.90
21834;DHT22;11079;51.092;3.458;2023-02-25T22:23:55;2.70;99.90
21834;DHT22;11079;51.092;3.458;2023-02-25T22:26:24;2.60;99.90
21834;DHT22;11079;51.092;3.458;2023-02-25T22:29:12;2.60;99.90
21834;DHT22;11079;51.092;3.458;2023-02-25T22:31:38;2.50;99.90
21834;DHT22;11079;51.092;3.458;2023-02-25T22:34:05;2.50;99.90
21834;DHT22;11079;51.092;3.458;2023-02-25T22:36:50;2.60;99.90
21834;DHT22;11079;51.092;3.458;2023-02-25T22:39:51;2.60;99.90
21834;DHT22;11079;51.092;3.458;2023-02-25T22:42:17;2.60;99.90
21834;DHT22;11079;51.092;3.458;2023-02-25T22:44:49;2.50;99.90
21834;DHT22;11079;51.092;3.458;2023-02-25T22:47:14;2.50;99.90
21834;DHT22;11079;51.092;3.458;2023-02-25T22:49:40;2.50;99.90
21834;DHT22;11079;51.092;3.458;2023-02-25T22:52:06;2.50;99.90
21834;DHT22;11079;51.092;3.458;2023-02-25T22:54:49;2.50;99.90
21834;DHT22;11079;51.092;3.458;2023-02-25T23:03:53;2.60;99.90
21834;DHT22;11079;51.092;3.458;2023-02-25T23:11:41;2.50;99.90
